createdAt,value
2022-08-19T00:00:10.627Z,13.13
2022-08-19T00:02:39.106Z,11.57
2022-08-19T00:05:20.026Z,11.83
2022-08-19T00:07:48.832Z,12.97
2022-08-19T00:10:18.856Z,11.77
2022-08-19T00:12:48.937Z,11.93
2022-08-19T00:15:20.103Z,12.93
2022-08-19T00:17:49.409Z,11.07
2022-08-19T00:20:19.796Z,10.87
2022-08-19T00:22:49.315Z,10.83
2022-08-19T00:25:17.773Z,13.63
2022-08-19T00:27:46.288Z,10.50
2022-08-19T00:30:16.380Z,10.00
2022-08-19T00:32:44.804Z,9.97
2022-08-19T00:35:13.468Z,10.93
2022-08-19T00:37:44.168Z,10.80
2022-08-19T00:40:14.565Z,12.10
2022-08-19T00:42:44.439Z,11.60
2022-08-19T00:45:18.106Z,10.23
2022-08-19T00:47:47.117Z,12.57
2022-08-19T00:50:18.590Z,12.57
2022-08-19T00:52:51.178Z,11.60
2022-08-19T00:55:23.395Z,10.63
2022-08-19T00:57:56.438Z,13.20
2022-08-19T01:00:28.478Z,16.43
2022-08-19T01:02:57.506Z,15.03
2022-08-19T01:05:29.737Z,11.60
2022-08-19T01:08:01.040Z,11.93
2022-08-19T01:10:36.120Z,14.47
2022-08-19T01:13:06.637Z,11.80
2022-08-19T01:15:42.420Z,12.03
2022-08-19T01:18:14.111Z,12.77
2022-08-19T01:20:43.591Z,15.00
2022-08-19T01:23:14.766Z,12.47
2022-08-19T01:25:49.118Z,15.70
2022-08-19T01:28:33.674Z,13.00
2022-08-19T01:31:08.161Z,11.93
2022-08-19T01:33:36.954Z,11.10
2022-08-19T01:36:11.663Z,11.00
2022-08-19T01:38:45.886Z,11.03
2022-08-19T01:41:14.598Z,11.27
2022-08-19T01:44:17.011Z,11.33
2022-08-19T01:46:31.232Z,12.90
2022-08-19T01:48:59.814Z,14.50
2022-08-19T01:51:28.526Z,13.53
2022-08-19T01:53:58.801Z,16.90
2022-08-19T01:56:27.685Z,16.10
2022-08-19T01:59:00.059Z,17.20
2022-08-19T02:01:31.447Z,14.47
2022-08-19T02:04:01.629Z,13.90
2022-08-19T02:06:30.814Z,15.00
2022-08-19T02:09:00.574Z,14.30
2022-08-19T02:11:32.427Z,16.17
2022-08-19T02:14:02.675Z,17.73
2022-08-19T02:16:31.594Z,17.07
2022-08-19T02:19:01.369Z,14.70
2022-08-19T02:21:30.277Z,16.40
2022-08-19T02:24:00.397Z,16.40
2022-08-19T02:26:28.822Z,15.30
2022-08-19T02:28:57.669Z,13.73
2022-08-19T02:31:28.834Z,14.47
2022-08-19T02:33:57.474Z,14.80
2022-08-19T02:36:27.281Z,12.23
2022-08-19T02:38:55.684Z,12.60
2022-08-19T02:41:27.955Z,11.80
2022-08-19T02:44:02.775Z,14.90
2022-08-19T02:46:48.516Z,16.10
2022-08-19T02:49:17.380Z,15.43
2022-08-19T02:51:47.402Z,16.23
2022-08-19T02:54:16.177Z,15.83
2022-08-19T02:56:46.918Z,18.53
2022-08-19T02:59:15.240Z,17.57
2022-08-19T03:01:44.663Z,16.27
2022-08-19T03:04:15.394Z,21.17
2022-08-19T03:06:46.406Z,17.60
2022-08-19T03:09:15.642Z,15.60
2022-08-19T03:11:45.299Z,17.30
2022-08-19T03:14:15.376Z,15.17
2022-08-19T03:16:47.431Z,14.97
2022-08-19T03:19:18.031Z,19.20
2022-08-19T03:21:47.600Z,19.20
2022-08-19T03:24:17.088Z,18.30
2022-08-19T03:26:49.154Z,20.90
2022-08-19T03:29:28.363Z,20.97
2022-08-19T03:32:01.556Z,21.50
2022-08-19T03:34:32.506Z,23.30
2022-08-19T03:37:05.484Z,25.93
2022-08-19T03:39:33.992Z,24.77
2022-08-19T03:42:31.972Z,24.57
2022-08-19T03:44:52.711Z,23.33
2022-08-19T03:47:20.980Z,24.47
2022-08-19T03:49:49.312Z,22.13
2022-08-19T03:52:17.581Z,25.00
2022-08-19T03:54:46.001Z,24.13
2022-08-19T03:57:15.920Z,24.77
2022-08-19T03:59:44.530Z,23.73
2022-08-19T04:02:14.454Z,23.93
2022-08-19T04:04:45.495Z,26.73
2022-08-19T04:07:16.793Z,39.17
2022-08-19T04:09:45.369Z,32.07
2022-08-19T04:12:15.930Z,34.23
2022-08-19T04:14:44.269Z,31.57
2022-08-19T04:17:14.989Z,25.87
2022-08-19T04:19:43.883Z,24.73
2022-08-19T04:22:13.010Z,26.57
2022-08-19T04:24:41.344Z,23.27
2022-08-19T04:27:09.720Z,26.93
2022-08-19T04:29:40.475Z,31.20
2022-08-19T04:32:09.907Z,30.40
2022-08-19T04:35:15.779Z,26.80
2022-08-19T04:37:34.887Z,33.87
2022-08-19T04:40:24.063Z,30.07
2022-08-19T04:42:52.689Z,33.23
2022-08-19T04:45:23.251Z,33.60
2022-08-19T04:47:58.855Z,31.80
2022-08-19T04:50:43.716Z,33.33
2022-08-19T04:53:12.270Z,35.47
2022-08-19T04:55:42.848Z,49.57
2022-08-19T04:58:11.480Z,44.90
2022-08-19T05:00:42.517Z,35.10
2022-08-19T05:03:11.886Z,34.80
2022-08-19T05:05:44.762Z,34.50
2022-08-19T05:08:15.291Z,30.73
2022-08-19T05:10:44.118Z,29.80
2022-08-19T05:13:12.743Z,30.20
2022-08-19T05:15:42.723Z,31.40
2022-08-19T05:18:28.647Z,31.90
2022-08-19T05:21:14.222Z,33.30
2022-08-19T05:23:42.587Z,37.27
2022-08-19T05:26:11.994Z,36.60
2022-08-19T05:28:40.295Z,41.40
2022-08-19T05:31:09.955Z,34.17
2022-08-19T05:33:38.457Z,36.83
2022-08-19T05:36:08.253Z,38.63
2022-08-19T05:38:37.441Z,32.73
2022-08-19T05:41:10.150Z,38.33
2022-08-19T05:43:39.516Z,41.33
2022-08-19T05:46:09.846Z,69.37
2022-08-19T05:48:38.695Z,44.90
2022-08-19T05:51:09.238Z,38.30
2022-08-19T05:53:37.766Z,34.03
2022-08-19T05:56:07.842Z,36.27
2022-08-19T05:58:36.868Z,35.87
2022-08-19T06:01:06.855Z,32.47
2022-08-19T06:03:38.522Z,35.13
2022-08-19T06:06:08.717Z,34.30
2022-08-19T06:08:37.603Z,34.20
2022-08-19T06:11:17.562Z,34.40
2022-08-19T06:13:48.130Z,29.97
2022-08-19T06:16:20.554Z,29.60
2022-08-19T06:18:52.531Z,32.30
2022-08-19T06:21:22.113Z,29.30
2022-08-19T06:23:51.917Z,49.13
2022-08-19T06:26:22.087Z,47.57
2022-08-19T06:28:51.465Z,35.07
2022-08-19T06:31:23.143Z,29.37
2022-08-19T06:33:52.882Z,26.63
2022-08-19T06:36:32.411Z,21.80
2022-08-19T06:39:01.964Z,27.40
2022-08-19T06:41:30.655Z,28.07
2022-08-19T06:43:59.206Z,53.20
2022-08-19T06:46:28.052Z,40.37
2022-08-19T06:48:59.307Z,29.77
2022-08-19T06:51:30.325Z,24.33
2022-08-19T06:54:00.382Z,25.97
2022-08-19T06:56:35.550Z,24.50
2022-08-19T06:59:06.189Z,26.13
2022-08-19T07:01:38.394Z,24.80
2022-08-19T07:04:12.185Z,22.60
2022-08-19T07:06:44.111Z,35.47
2022-08-19T07:09:14.997Z,44.10
2022-08-19T07:11:48.550Z,37.50
2022-08-19T07:14:20.245Z,43.63
2022-08-19T07:16:50.173Z,41.43
2022-08-19T07:19:21.462Z,42.57
2022-08-19T07:21:53.735Z,40.63
2022-08-19T07:24:25.455Z,45.37
2022-08-19T07:26:55.626Z,39.80
2022-08-19T07:29:25.865Z,42.37
2022-08-19T07:32:00.198Z,37.27
2022-08-19T07:34:32.199Z,50.67
2022-08-19T07:37:00.532Z,39.77
2022-08-19T07:39:32.053Z,43.30
2022-08-19T07:42:03.607Z,43.00
2022-08-19T07:44:32.255Z,49.10
2022-08-19T07:47:01.145Z,45.57
2022-08-19T07:49:30.826Z,43.33
2022-08-19T07:52:02.261Z,55.80
2022-08-19T07:54:32.711Z,54.07
2022-08-19T07:57:01.037Z,55.77
2022-08-19T07:59:30.110Z,49.50
2022-08-19T08:02:00.621Z,40.17
2022-08-19T08:04:48.705Z,38.23
2022-08-19T08:07:35.111Z,39.37
2022-08-19T08:10:14.002Z,42.17
2022-08-19T08:12:58.398Z,35.13
2022-08-19T08:15:42.962Z,40.07
2022-08-19T08:18:12.885Z,40.30
2022-08-19T08:20:44.349Z,44.87
2022-08-19T08:23:25.811Z,31.83
2022-08-19T08:25:56.385Z,28.23
2022-08-19T08:28:25.567Z,30.97
2022-08-19T08:30:55.582Z,26.30
2022-08-19T08:33:34.284Z,27.07
2022-08-19T08:36:07.163Z,29.33
2022-08-19T08:38:39.639Z,28.30
2022-08-19T08:41:20.317Z,24.07
2022-08-19T08:43:52.884Z,21.50
2022-08-19T08:46:31.557Z,22.33
2022-08-19T08:49:09.631Z,20.97
2022-08-19T08:54:16.004Z,23.10
2022-08-19T08:56:46.892Z,19.20
2022-08-19T08:59:22.867Z,20.17
2022-08-19T09:01:51.196Z,18.83
2022-08-19T09:04:19.764Z,19.17
2022-08-19T09:06:57.126Z,18.50
2022-08-19T09:09:33.617Z,19.33
2022-08-19T09:12:12.999Z,15.10
2022-08-19T09:14:50.688Z,16.90
2022-08-19T09:17:22.015Z,18.13
2022-08-19T09:19:55.843Z,15.87
2022-08-19T09:22:27.912Z,19.13
2022-08-19T09:24:57.150Z,17.40
2022-08-19T09:27:41.890Z,20.67
2022-08-19T09:30:15.977Z,20.83
2022-08-19T09:32:45.029Z,18.40
2022-08-19T09:35:14.957Z,21.13
2022-08-19T09:37:45.378Z,20.40
2022-08-19T09:40:15.421Z,14.43
2022-08-19T09:42:50.017Z,13.07
2022-08-19T09:45:23.081Z,16.10
2022-08-19T09:47:54.632Z,11.73
2022-08-19T09:50:24.857Z,13.70
2022-08-19T09:52:57.307Z,11.07
2022-08-19T09:55:31.014Z,24.23
2022-08-19T09:57:59.815Z,23.87
2022-08-19T10:00:28.580Z,15.50
2022-08-19T10:02:57.351Z,12.70
2022-08-19T10:05:42.939Z,11.50
2022-08-19T10:08:14.020Z,9.83
2022-08-19T10:10:46.313Z,13.00
2022-08-19T10:13:17.232Z,9.90
2022-08-19T10:15:48.127Z,7.90
2022-08-19T10:18:19.473Z,9.90
2022-08-19T10:20:51.389Z,8.43
2022-08-19T10:23:23.113Z,7.20
2022-08-19T10:25:52.390Z,9.30
2022-08-19T10:28:20.909Z,10.53
2022-08-19T10:30:52.027Z,8.37
2022-08-19T10:33:39.345Z,8.93
2022-08-19T10:36:12.355Z,8.75
2022-08-19T10:38:51.271Z,10.23
2022-08-19T10:41:25.001Z,8.77
2022-08-19T10:43:55.405Z,10.53
2022-08-19T10:46:25.631Z,10.43
2022-08-19T10:48:54.490Z,12.00
2022-08-19T10:51:46.597Z,15.30
2022-08-19T10:54:29.558Z,14.80
2022-08-19T10:56:59.717Z,12.83
2022-08-19T10:59:33.817Z,11.97
2022-08-19T11:02:07.222Z,12.00
2022-08-19T11:04:35.947Z,9.73
2022-08-19T11:07:05.667Z,11.73
2022-08-19T11:09:41.751Z,9.70
2022-08-19T11:12:13.572Z,10.23
2022-08-19T11:14:41.939Z,13.53
2022-08-19T11:17:12.247Z,13.53
2022-08-19T11:19:40.593Z,10.73
2022-08-19T11:22:11.346Z,9.17
2022-08-19T11:24:45.858Z,8.10
2022-08-19T11:27:15.286Z,7.50
2022-08-19T11:29:43.579Z,7.63
2022-08-19T11:32:13.806Z,7.93
2022-08-19T11:34:42.141Z,8.23
2022-08-19T11:37:10.648Z,7.23
2022-08-19T11:39:39.964Z,8.90
2022-08-19T11:42:24.113Z,11.47
2022-08-19T11:44:52.630Z,5.70
2022-08-19T11:47:21.078Z,7.60
2022-08-19T11:49:49.798Z,8.57
2022-08-19T11:52:18.221Z,10.10
2022-08-19T11:54:46.580Z,6.53
2022-08-19T11:57:17.947Z,6.93
2022-08-19T11:59:50.923Z,5.97
2022-08-19T12:02:20.069Z,5.77
2022-08-19T12:04:48.720Z,6.20
2022-08-19T12:07:17.124Z,7.43
2022-08-19T12:09:45.946Z,6.20
2022-08-19T12:12:18.431Z,5.87
2022-08-19T12:14:47.469Z,6.83
2022-08-19T12:17:16.252Z,5.63
2022-08-19T12:19:44.552Z,5.20
2022-08-19T12:22:13.387Z,8.90
2022-08-19T12:24:41.757Z,4.70
2022-08-19T12:27:12.562Z,25.13
2022-08-19T12:29:42.474Z,20.23
2022-08-19T12:32:12.243Z,13.47
2022-08-19T12:34:41.471Z,11.13
2022-08-19T12:37:10.354Z,8.93
2022-08-19T12:39:40.238Z,6.97
2022-08-19T12:42:09.206Z,5.30
2022-08-19T12:44:38.066Z,4.10
2022-08-19T12:47:08.901Z,4.80
2022-08-19T12:49:55.287Z,4.27
2022-08-19T12:52:26.059Z,5.83
2022-08-19T12:54:55.730Z,4.60
2022-08-19T12:57:31.976Z,4.57
2022-08-19T13:00:05.352Z,4.57
2022-08-19T13:02:38.520Z,3.47
2022-08-19T13:05:10.907Z,4.07
2022-08-19T13:07:40.531Z,4.63
2022-08-19T13:10:12.054Z,3.97
2022-08-19T13:12:42.229Z,3.37
2022-08-19T13:15:11.617Z,5.53
2022-08-19T13:17:42.110Z,3.93
2022-08-19T13:20:12.460Z,3.90
2022-08-19T13:22:41.050Z,3.93
2022-08-19T13:25:10.777Z,3.63
2022-08-19T13:27:40.448Z,5.40
2022-08-19T13:30:28.179Z,6.73
2022-08-19T13:33:13.050Z,4.53
2022-08-19T13:35:47.303Z,4.47
2022-08-19T13:38:17.814Z,2.93
2022-08-19T13:40:47.446Z,9.43
2022-08-19T13:43:23.080Z,10.20
2022-08-19T13:45:56.654Z,6.33
2022-08-19T13:48:27.434Z,5.10
2022-08-19T13:50:55.965Z,3.70
2022-08-19T13:53:25.574Z,6.23
2022-08-19T13:55:54.687Z,4.10
2022-08-19T13:58:24.618Z,3.67
2022-08-19T14:00:52.993Z,5.20
2022-08-19T14:03:21.261Z,3.50
2022-08-19T14:05:51.216Z,3.77
2022-08-19T14:08:20.196Z,3.63
2022-08-19T14:10:49.562Z,3.87
2022-08-19T14:13:20.628Z,4.60
2022-08-19T14:15:49.434Z,5.80
2022-08-19T14:18:18.983Z,3.87
2022-08-19T14:20:47.779Z,3.60
2022-08-19T14:23:17.761Z,3.90
2022-08-19T14:25:47.514Z,3.37
2022-08-19T14:28:15.910Z,3.43
2022-08-19T14:30:45.569Z,2.80
2022-08-19T14:33:15.218Z,3.70
2022-08-19T14:35:45.854Z,4.30
2022-08-19T14:38:24.638Z,4.50
2022-08-19T14:41:09.777Z,3.13
2022-08-19T14:43:39.377Z,4.77
2022-08-19T14:46:08.349Z,4.63
2022-08-19T14:48:40.953Z,3.97
2022-08-19T14:51:10.357Z,6.17
2022-08-19T14:53:40.351Z,13.20
2022-08-19T14:56:14.087Z,9.10
2022-08-19T14:58:43.461Z,4.87
2022-08-19T15:01:12.973Z,4.37
2022-08-19T15:03:42.078Z,4.80
2022-08-19T15:06:12.682Z,5.50
2022-08-19T15:08:44.102Z,5.60
2022-08-19T15:11:15.401Z,4.90
2022-08-19T15:13:45.039Z,6.67
2022-08-19T15:16:18.086Z,4.60
2022-08-19T15:18:47.540Z,5.53
2022-08-19T15:21:26.912Z,4.87
2022-08-19T15:23:58.783Z,5.20
2022-08-19T15:26:28.906Z,3.90
2022-08-19T15:28:57.156Z,4.20
2022-08-19T15:31:28.231Z,4.27
2022-08-19T15:33:58.746Z,4.63
2022-08-19T15:36:27.960Z,4.30
2022-08-19T15:38:58.486Z,5.13
2022-08-19T15:41:30.523Z,5.83
2022-08-19T15:44:01.428Z,4.50
2022-08-19T15:46:31.874Z,4.90
2022-08-19T15:49:00.983Z,4.97
2022-08-19T15:51:31.425Z,4.90
2022-08-19T15:54:02.100Z,4.23
2022-08-19T15:56:58.300Z,4.23
2022-08-19T15:59:47.316Z,4.50
2022-08-19T16:02:34.288Z,5.40
2022-08-19T16:05:20.283Z,4.60
2022-08-19T16:07:49.146Z,4.90
2022-08-19T16:10:26.268Z,5.67
2022-08-19T16:12:55.253Z,4.90
2022-08-19T16:15:23.766Z,3.67
2022-08-19T16:17:56.643Z,4.03
2022-08-19T16:20:27.436Z,7.70
2022-08-19T16:22:58.290Z,3.40
2022-08-19T16:25:29.928Z,5.90
2022-08-19T16:28:07.367Z,7.00
2022-08-19T16:30:38.964Z,6.80
2022-08-19T16:33:07.959Z,5.33
2022-08-19T16:35:36.553Z,4.17
2022-08-19T16:38:06.915Z,4.23
2022-08-19T16:40:36.978Z,4.20
2022-08-19T16:43:06.448Z,4.20
2022-08-19T16:45:34.835Z,4.10
2022-08-19T16:48:03.917Z,4.20
2022-08-19T16:50:48.613Z,4.43
2022-08-19T16:53:18.480Z,2.57
2022-08-19T16:55:54.035Z,3.53
2022-08-19T16:58:28.098Z,3.47
2022-08-19T17:01:00.764Z,3.87
2022-08-19T17:03:36.480Z,4.50
2022-08-19T17:06:15.945Z,5.63
2022-08-19T17:08:48.865Z,5.30
2022-08-19T17:11:19.842Z,5.53
2022-08-19T17:13:49.415Z,5.03
2022-08-19T17:16:17.988Z,4.33
2022-08-19T17:18:46.716Z,3.07
2022-08-19T17:21:15.017Z,2.93
2022-08-19T17:23:44.289Z,2.83
2022-08-19T17:26:15.872Z,3.87
2022-08-19T17:28:50.043Z,3.13
2022-08-19T17:31:18.983Z,3.40
2022-08-19T17:33:48.715Z,12.13
2022-08-19T17:36:17.595Z,7.77
2022-08-19T17:38:46.144Z,11.90
2022-08-19T17:41:14.821Z,6.17
2022-08-19T17:43:44.322Z,4.00
2022-08-19T17:46:18.768Z,3.60
2022-08-19T17:48:52.121Z,2.90
2022-08-19T17:51:23.824Z,2.70
2022-08-19T17:53:55.019Z,2.73
2022-08-19T17:56:23.928Z,1.90
2022-08-19T17:58:57.693Z,2.37
2022-08-19T18:01:43.953Z,1.90
2022-08-19T18:04:20.046Z,1.70
2022-08-19T18:06:53.588Z,2.03
2022-08-19T18:09:24.529Z,1.43
2022-08-19T18:11:54.687Z,1.60
2022-08-19T18:14:28.087Z,1.50
2022-08-19T18:17:05.967Z,1.57
2022-08-19T18:19:42.123Z,1.83
2022-08-19T18:22:13.395Z,1.70
2022-08-19T18:24:42.638Z,2.00
2022-08-19T18:27:14.561Z,1.30
2022-08-19T18:29:43.449Z,1.40
2022-08-19T18:32:14.606Z,2.50
2022-08-19T18:34:45.880Z,1.80
2022-08-19T18:37:14.228Z,1.40
2022-08-19T18:40:00.065Z,1.30
2022-08-19T18:42:45.972Z,1.40
2022-08-19T18:45:46.352Z,1.07
2022-08-19T18:48:33.489Z,2.20
2022-08-19T18:51:02.942Z,1.37
2022-08-19T18:53:34.806Z,1.57
2022-08-19T18:56:03.410Z,1.57
2022-08-19T18:58:34.460Z,2.60
2022-08-19T19:01:09.172Z,1.50
2022-08-19T19:03:40.573Z,1.97
2022-08-19T19:06:09.333Z,5.03
2022-08-19T19:08:38.885Z,3.10
2022-08-19T19:11:08.025Z,3.30
2022-08-19T19:13:39.815Z,3.10
2022-08-19T19:16:10.125Z,2.37
2022-08-19T19:18:39.997Z,2.10
2022-08-19T19:21:09.169Z,2.07
2022-08-19T19:23:40.589Z,2.40
2022-08-19T19:26:10.595Z,1.80
2022-08-19T19:28:43.979Z,2.17
2022-08-19T19:31:13.882Z,2.13
2022-08-19T19:33:44.691Z,1.90
2022-08-19T19:36:13.771Z,2.20
2022-08-19T19:38:48.555Z,2.37
2022-08-19T19:41:20.111Z,1.83
2022-08-19T19:43:59.898Z,1.90
2022-08-19T19:46:38.697Z,1.97
2022-08-19T19:49:08.445Z,2.00
2022-08-19T19:51:39.512Z,1.90
2022-08-19T19:54:13.579Z,1.73
2022-08-19T19:56:46.174Z,2.00
2022-08-19T19:59:14.803Z,1.80
2022-08-19T20:01:47.102Z,2.00
2022-08-19T20:04:18.231Z,2.60
2022-08-19T20:06:47.032Z,2.10
2022-08-19T20:09:19.854Z,5.20
2022-08-19T20:11:53.671Z,2.00
2022-08-19T20:14:26.666Z,2.83
2022-08-19T20:16:56.897Z,3.67
2022-08-19T20:19:31.339Z,2.10
2022-08-19T20:22:00.270Z,2.97
2022-08-19T20:24:32.633Z,2.10
2022-08-19T20:27:02.233Z,4.50
2022-08-19T20:29:38.143Z,1.90
2022-08-19T20:32:08.862Z,2.17
2022-08-19T20:34:39.342Z,4.23
2022-08-19T20:37:09.587Z,2.10
2022-08-19T20:39:38.438Z,2.40
2022-08-19T20:42:07.702Z,2.57
2022-08-19T20:44:37.855Z,1.80
2022-08-19T20:47:06.615Z,3.30
2022-08-19T20:49:35.434Z,2.60
2022-08-19T20:52:06.915Z,3.67
2022-08-19T20:54:35.395Z,3.47
2022-08-19T20:57:05.541Z,2.97
2022-08-19T20:59:34.410Z,3.30
2022-08-19T21:02:02.735Z,2.80
2022-08-19T21:04:31.684Z,2.87
2022-08-19T21:07:00.516Z,2.70
2022-08-19T21:09:30.326Z,2.53
2022-08-19T21:11:58.604Z,2.60
2022-08-19T21:14:27.147Z,2.90
2022-08-19T21:16:55.553Z,2.20
2022-08-19T21:19:24.342Z,2.10
2022-08-19T21:21:53.461Z,2.73
2022-08-19T21:24:21.935Z,6.57
2022-08-19T21:27:01.522Z,2.40
2022-08-19T21:29:32.030Z,2.97
2022-08-19T21:32:00.395Z,2.53
2022-08-19T21:34:29.302Z,3.60
2022-08-19T21:36:57.847Z,3.60
2022-08-19T21:39:26.275Z,3.23
2022-08-19T21:41:54.564Z,4.67
2022-08-19T21:44:24.843Z,2.70
2022-08-19T21:46:54.163Z,3.33
2022-08-19T21:49:22.711Z,5.17
2022-08-19T21:51:51.715Z,5.90
2022-08-19T21:54:20.765Z,3.53
2022-08-19T21:56:49.389Z,3.80
2022-08-19T21:59:18.110Z,4.53
2022-08-19T22:01:52.064Z,7.13
2022-08-19T22:04:28.087Z,3.70
2022-08-19T22:06:56.834Z,4.20
2022-08-19T22:09:25.356Z,4.10
2022-08-19T22:11:54.103Z,3.60
2022-08-19T22:14:22.538Z,4.93
2022-08-19T22:16:52.318Z,3.13
2022-08-19T22:19:20.696Z,3.60
2022-08-19T22:21:49.175Z,3.73
2022-08-19T22:24:18.192Z,3.50
2022-08-19T22:26:46.764Z,2.70
2022-08-19T22:29:16.339Z,3.77
2022-08-19T22:31:46.153Z,3.23
2022-08-19T22:34:24.871Z,3.10
2022-08-19T22:36:53.325Z,2.80
2022-08-19T22:39:21.960Z,2.97
2022-08-19T22:41:50.472Z,2.70
2022-08-19T22:44:18.666Z,3.43
2022-08-19T22:46:46.925Z,3.00
2022-08-19T22:49:15.265Z,3.73
2022-08-19T22:52:02.320Z,4.00
2022-08-19T22:54:30.758Z,3.13
2022-08-19T22:56:59.143Z,2.60
2022-08-19T22:59:27.592Z,4.60
2022-08-19T23:01:55.838Z,2.97
2022-08-19T23:04:24.064Z,2.63
2022-08-19T23:06:53.764Z,3.20
2022-08-19T23:09:23.316Z,3.70
2022-08-19T23:11:51.854Z,2.90
2022-08-19T23:14:20.119Z,2.67
2022-08-19T23:16:51.226Z,3.07
2022-08-19T23:19:21.181Z,3.60
2022-08-19T23:21:50.231Z,4.40
2022-08-19T23:24:19.942Z,3.10
2022-08-19T23:27:05.734Z,5.30
2022-08-19T23:29:51.537Z,3.63
2022-08-19T23:32:21.184Z,4.60
2022-08-19T23:34:50.026Z,5.27
2022-08-19T23:37:18.617Z,3.50
2022-08-19T23:39:48.232Z,4.53
2022-08-19T23:42:16.712Z,6.13
2022-08-19T23:44:51.224Z,4.70
2022-08-19T23:47:21.864Z,3.60
2022-08-19T23:49:50.721Z,5.73
2022-08-19T23:52:19.463Z,3.90
2022-08-19T23:54:49.228Z,4.90
2022-08-19T23:57:17.482Z,4.70
2022-08-19T23:59:46.276Z,5.23
